Latest Weather Observations for Pallamana

IDS60901

Issued at 5:51 am CST Monday 6 April 2020 (issued every 10 minutes, with the page automatically refreshed every 10 minutes)

About weather observations | Map of Adelaide area stations | Latest observations for Adelaide area | Other Formats
Station Details ID: 024584 Name: PALLAMANA AERODROME Lat: -35.06 Lon: 139.23 Height: 45.0 m
Data from the previous 72 hours. | See also: Recent months at Pallamana
Date/Time
CST
Temp
°C
App
Temp
°C
Dew
Point
°C
Rel
Hum
%
Delta-T
°C
Wind Press
QNH
hPa
Press
MSL
hPa
Rain since
9am
mm
Dir  Spd
km/h
Gust
km/h
Spd
kts
Gust
kts
06/05:30am 12.4 11.2 11.5 94 0.5 WNW 9 9 5 5 1021.0 1020.9 0.0
06/05:00am 12.4 11.6 11.6 95 0.4 W 7 9 4 5 1020.5 1020.4 0.0
06/04:30am 11.9 10.6 11.3 96 0.3 SW 9 11 5 6 1020.2 1020.1 0.0
06/04:00am 12.3 11.4 11.5 95 0.4 SW 7 13 4 7 1020.2 1020.1 0.0
06/03:58am 12.3 11.4 11.3 94 0.5 SW 7 11 4 6 1020.2 1020.1 0.0
06/03:39am 12.7 11.6 11.8 94 0.5 SW 9 17 5 9 1020.1 1020.0 0.0
06/03:30am 11.8 12.1 11.0 95 0.4 CALM 0 4 0 2 1020.0 1019.9 0.0
06/03:00am 12.0 10.6 11.0 94 0.5 SW 9 11 5 6 1019.9 1019.8 0.0
06/02:30am 12.3 11.0 11.2 93 0.6 WSW 9 11 5 6 1019.9 1019.8 0.0
06/02:00am 13.4 11.5 11.9 91 0.8 WSW 13 17 7 9 1019.9 1019.8 0.0
06/01:30am 13.7 11.8 11.8 88 1.0 WSW 13 19 7 10 1019.7 1019.6 0.0
06/01:00am 13.6 12.5 12.1 91 0.8 W 9 11 5 6 1019.8 1019.7 0.0
06/12:30am 14.0 12.3 12.5 91 0.8 WSW 13 15 7 8 1019.7 1019.6 0.0
06/12:26am 14.0 12.3 12.5 91 0.8 WSW 13 15 7 8 1019.7 1019.6 0.0
06/12:13am 14.4 12.8 12.8 90 0.9 SW 13 17 7 9 1019.7 1019.6 0.0
06/12:00am 14.2 12.8 12.2 88 1.1 SSW 11 13 6 7 1019.8 1019.7 0.0
 
Date/Time
CST
Temp
°C
App
Temp
°C
Dew
Point
°C
Rel
Hum
%
Delta-T
°C
Wind Press
QNH
hPa
Press
MSL
hPa
Rain since
9am
mm
Dir  Spd
km/h
Gust
km/h
Spd
kts
Gust
kts
05/11:30pm 14.0 12.9 11.8 86 1.2 SW 9 11 5 6 1019.7 1019.6 0.0
05/11:00pm 14.3 13.1 11.7 84 1.4 WSW 9 11 5 6 1019.6 1019.5 0.0
05/10:30pm 14.8 13.0 12.0 83 1.5 WSW 13 15 7 8 1019.7 1019.6 0.0
05/10:00pm 15.4 14.9 12.7 84 1.5 SSW 7 11 4 6 1019.5 1019.4 0.0
05/09:30pm 15.4 14.1 12.5 83 1.6 WSW 11 15 6 8 1019.1 1019.0 0.0
05/09:00pm 15.6 14.8 12.9 84 1.5 W 9 15 5 8 1018.9 1018.8 0.0
05/08:30pm 15.0 13.4 12.8 87 1.2 WSW 13 17 7 9 1018.4 1018.3 0.0
05/08:10pm 15.1 11.4 12.7 85 1.3 SW 24 30 13 16 1018.3 1018.2 0.0
05/08:00pm 15.4 11.4 13.1 86 1.3 SW 26 30 14 16 1018.2 1018.1 0.0
05/07:52pm 16.1 13.2 12.9 81 1.8 SW 20 30 11 16 1018.2 1018.1 0.0
05/07:30pm 16.8 13.6 11.9 73 2.7 WSW 20 26 11 14 1018.0 1017.9 0.0
05/07:00pm 16.8 14.4 12.5 76 2.4 WSW 17 20 9 11 1017.6 1017.5 0.0
05/06:30pm 16.8 14.6 13.2 79 2.0 SSW 17 22 9 12 1017.1 1017.0 0.0
05/06:00pm 18.0 14.6 10.5 61 4.0 WSW 19 30 10 16 1016.7 1016.6 0.0
05/05:30pm 18.5 12.7 9.6 56 4.7 W 30 41 16 22 1016.3 1016.2 0.0
05/05:00pm 19.0 13.8 10.2 56 4.7 W 28 39 15 21 1016.1 1016.0 0.0
05/04:30pm 19.7 13.9 9.5 51 5.4 WSW 30 44 16 24 1015.7 1015.6 0.0
05/04:00pm 21.0 14.8 9.2 46 6.3 W 32 44 17 24 1015.3 1015.2 0.0
05/03:30pm 21.0 13.9 9.4 47 6.2 W 37 50 20 27 1014.8 1014.7 0.0
05/03:00pm 20.8 13.2 9.1 47 6.2 W 39 54 21 29 1014.5 1014.4 0.0
05/02:30pm 20.4 13.5 8.8 47 6.1 W 35 54 19 29 1014.7 1014.6 0.0
05/02:24pm 20.6 13.7 8.9 47 6.2 W 35 54 19 29 1014.9 1014.8 0.0
05/02:00pm 20.6 14.2 8.6 46 6.3 WNW 32 44 17 24 1015.1 1015.0 0.0
05/01:30pm 20.6 13.5 9.6 49 5.9 W 37 48 20 26 1015.3 1015.2 0.0
05/01:00pm 19.9 14.8 10.5 54 5.1 WNW 28 41 15 22 1015.5 1015.4 0.0
05/12:30pm 19.1 14.9 11.2 60 4.3 WNW 24 37 13 20 1015.7 1015.6 0.0
05/12:00pm 18.6 13.4 11.5 63 3.9 W 30 41 16 22 1015.9 1015.8 0.0
05/11:30am 18.8 13.6 10.4 58 4.5 WNW 28 41 15 22 1015.9 1015.8 0.0
05/11:00am 17.7 12.7 11.0 65 3.6 W 28 41 15 22 1016.2 1016.1 0.0
05/10:30am 17.0 12.9 11.3 69 3.1 WNW 24 37 13 20 1016.2 1016.1 0.0
05/10:00am 16.7 12.7 11.7 72 2.7 W 24 37 13 20 1016.2 1016.1 0.0
05/09:30am 15.7 12.8 12.2 80 1.9 WNW 19 28 10 15 1016.3 1016.2 0.0
05/09:00am 16.4 12.8 10.6 68 3.1 W 20 28 11 15 1016.0 1015.9 0.0
05/08:41am 15.8 12.3 10.9 72 2.6 W 20 30 11 16 1015.9 1015.8 0.0
05/08:30am 15.0 12.2 11.5 79 1.9 W 17 24 9 13 1015.8 1015.7 0.0
05/08:24am 15.1 12.0 11.6 79 1.9 W 19 24 10 13 1015.9 1015.8 0.0
05/08:00am 15.4 12.5 10.9 74 2.4 W 17 24 9 13 1015.5 1015.4 0.0
05/07:30am 14.1 12.4 11.1 82 1.6 W 11 15 6 8 1015.2 1015.1 0.0
05/07:00am 14.1 11.9 10.9 81 1.7 W 13 24 7 13 1014.9 1014.8 0.0
05/06:30am 14.3 11.1 10.1 76 2.2 W 17 26 9 14 1014.5 1014.4 0.0
05/06:00am 13.6 11.5 9.9 78 1.9 WNW 11 13 6 7 1014.1 1014.0 0.0
05/05:30am 13.7 11.3 10.0 78 1.9 WNW 13 17 7 9 1013.9 1013.8 0.0
05/05:00am 12.2 10.6 10.3 88 1.0 NNW 9 11 5 6 1013.6 1013.5 0.0
05/04:30am 13.3 11.7 10.2 81 1.6 WNW 9 13 5 7 1013.4 1013.3 0.0
05/04:00am 13.8 10.9 9.5 75 2.2 WNW 15 22 8 12 1013.3 1013.2 0.0
05/03:30am 11.5 9.8 9.7 89 0.9 NW 9 11 5 6 1013.2 1013.1 0.0
05/03:00am 10.9 9.1 9.3 90 0.8 NNW 9 11 5 6 1013.4 1013.3 0.0
05/03:30am 10.2 8.6 8.8 91 0.7 NNW 7 9 4 5 1013.5 1013.4 0.0
05/03:00am 10.6 8.7 9.2 91 0.7 NNW 9 11 5 6 1013.7 1013.6 0.0
05/02:30am 11.0 9.6 9.6 91 0.7 NNW 7 9 4 5 1013.8 1013.7 0.0
05/02:00am 11.3 9.8 9.3 87 1.0 NW 7 9 4 5 1013.9 1013.8 0.0
05/01:30am 11.3 9.4 9.1 86 1.1 WNW 9 11 5 6 1014.0 1013.9 0.0
05/01:00am 11.5 9.6 9.1 85 1.2 WNW 9 11 5 6 1014.1 1014.0 0.0
05/12:30am 12.0 10.2 9.6 85 1.2 WNW 9 13 5 7 1014.1 1014.0 0.0
05/12:00am 12.2 9.8 9.9 86 1.2 WNW 13 15 7 8 1014.2 1014.1 0.0
 
Date/Time
CST
Temp
°C
App
Temp
°C
Dew
Point
°C
Rel
Hum
%
Delta-T
°C
Wind Press
QNH
hPa
Press
MSL
hPa
Rain since
9am
mm
Dir  Spd
km/h
Gust
km/h
Spd
kts
Gust
kts
04/11:30pm 12.1 9.7 10.0 87 1.1 W 13 15 7 8 1014.3 1014.2 0.0
04/11:00pm 12.6 10.5 9.9 83 1.4 W 11 15 6 8 1014.3 1014.2 0.0
04/10:30pm 13.0 11.8 10.3 84 1.4 WNW 7 11 4 6 1014.3 1014.2 0.0
04/10:00pm 12.5 11.7 11.0 90 0.8 NW 6 7 3 4 1014.3 1014.2 0.0
04/09:30pm 12.4 11.5 10.5 88 1.0 WNW 6 7 3 4 1014.0 1013.9 0.0
04/09:00pm 12.9 11.4 10.4 85 1.3 W 9 11 5 6 1013.8 1013.7 0.0
04/08:30pm 13.1 11.1 10.2 82 1.5 W 11 15 6 8 1013.4 1013.3 0.0
04/08:09pm 13.3 10.6 10.4 82 1.5 W 15 20 8 11 1013.4 1013.3 0.0
04/08:00pm 13.5 10.1 10.4 81 1.6 W 19 30 10 16 1013.4 1013.3 0.0
04/07:57pm 13.5 10.0 10.2 80 1.7 W 19 30 10 16 1013.3 1013.2 0.0
04/07:30pm 14.1 11.7 10.1 77 2.1 WNW 13 19 7 10 1012.8 1012.7 0.0
04/07:00pm 14.8 9.4 8.2 64 3.3 SW 26 32 14 17 1012.4 1012.3 0.0
04/06:30pm 15.9 11.0 8.4 61 3.8 WSW 24 32 13 17 1012.0 1011.9 0.0
04/06:00pm 16.1 10.5 7.3 56 4.4 W 26 39 14 21 1011.5 1011.4 0.0
04/05:47pm 15.6 9.9 8.5 62 3.6 WSW 28 39 15 21 1011.3 1011.2 0.0
04/05:30pm 16.0 8.5 8.1 59 4.0 WSW 37 50 20 27 1010.9 1010.9 0.0
04/05:28pm 16.8 9.9 7.4 54 4.7 WSW 33 46 18 25 1010.9 1010.9 0.0
04/05:00pm 18.1 11.2 6.4 46 5.8 W 32 44 17 24 1010.5 1010.5 0.0
04/04:32pm 17.1 11.4 8.3 56 4.5 W 28 48 15 26 1010.3 1010.3 0.0
04/04:30pm 17.0 11.9 9.1 59 4.1 W 26 37 14 20 1010.4 1010.4 0.0
04/04:00pm 17.8 10.3 6.5 47 5.6 W 35 46 19 25 1009.9 1009.9 0.0
04/03:36pm 18.4 10.7 7.1 47 5.7 W 37 57 20 31 1009.7 1009.7 0.0
04/03:30pm 18.1 10.8 7.4 49 5.4 W 35 50 19 27 1009.8 1009.8 0.0
04/03:08pm 17.5 10.9 7.9 53 4.9 W 32 50 17 27 1009.8 1009.8 0.0
04/03:00pm 16.4 10.0 8.6 60 4.0 W 32 44 17 24 1009.9 1009.9 0.0
04/02:30pm 17.2 8.7 7.0 51 5.1 W 41 63 22 34 1009.4 1009.4 0.0
04/02:29pm 17.8 9.6 6.5 47 5.6 W 39 63 21 34 1009.4 1009.4 0.0
04/02:00pm 18.5 9.2 4.8 40 6.6 WSW 43 54 23 29 1009.2 1009.2 0.0
04/01:30pm 19.1 10.6 5.2 40 6.8 W 39 59 21 32 1009.2 1009.2 0.0
04/01:25pm 18.9 11.3 5.7 42 6.5 W 35 59 19 32 1009.1 1009.1 0.0
04/01:00pm 18.2 9.7 6.8 47 5.7 W 41 56 22 30 1009.3 1009.3 0.0
04/12:30pm 18.2 9.3 6.8 47 5.7 WSW 43 57 23 31 1009.2 1009.2 0.0
04/12:00pm 18.1 9.8 6.2 45 5.9 WSW 39 52 21 28 1009.1 1009.1 0.0
04/11:45am 17.8 8.5 5.7 45 5.9 W 44 63 24 34 1009.2 1009.2 0.0
04/11:30am 17.7 9.5 6.7 48 5.5 WSW 39 50 21 27 1009.1 1009.1 0.0
04/11:00am 17.3 9.1 6.6 49 5.3 W 39 54 21 29 1009.0 1009.0 0.0
04/10:30am 16.6 8.4 6.4 51 5.0 WSW 39 52 21 28 1009.1 1009.1 0.0
04/10:00am 15.9 7.8 7.0 55 4.4 WSW 39 57 21 31 1008.7 1008.7 0.0
04/09:30am 15.0 8.2 7.6 61 3.7 W 33 46 18 25 1008.6 1008.6 0.0
04/09:00am 14.2 7.5 7.5 64 3.3 WSW 32 48 17 26 1008.2 1008.2 4.4
04/08:56am 14.1 7.8 7.4 64 3.3 WSW 30 48 16 26 1008.1 1008.1 4.4
04/08:30am 13.5 7.6 7.4 66 3.0 W 28 39 15 21 1007.7 1007.7 4.4
04/08:00am 12.7 7.9 7.4 70 2.6 WSW 22 28 12 15 1007.4 1007.4 4.4
04/07:30am 12.6 7.5 7.5 71 2.5 WSW 24 32 13 17 1007.1 1007.1 4.4
04/07:00am 12.6 7.7 6.8 68 2.8 WSW 22 30 12 16 1006.7 1006.7 4.4
04/06:30am 12.9 8.6 6.9 67 2.9 WSW 19 24 10 13 1006.4 1006.4 4.4
04/06:00am 12.7 8.2 7.1 69 2.7 WSW 20 30 11 16 1006.0 1006.0 4.4
04/05:30am 13.4 8.1 6.8 64 3.2 W 24 33 13 18 1005.5 1005.5 4.4
04/05:00am 13.5 7.8 6.7 63 3.3 W 26 39 14 21 1005.0 1005.0 4.4
04/04:30am 13.1 8.5 8.1 71 2.5 WSW 22 32 12 17 1004.9 1004.9 4.4
04/04:00am 13.2 9.0 8.2 71 2.5 WSW 20 30 11 16 1004.6 1004.5 4.4
04/03:30am 13.0 9.0 9.1 77 2.0 WSW 20 26 11 14 1004.3 1004.2 4.4
04/03:00am 12.9 8.9 9.2 78 1.9 WSW 20 26 11 14 1004.2 1004.1 4.4
04/02:30am 13.4 9.1 9.3 76 2.1 WSW 22 28 12 15 1003.8 1003.7 4.4
04/02:00am 13.7 9.3 8.8 72 2.5 W 22 32 12 17 1003.5 1003.4 4.4
04/01:30am 13.6 9.9 9.3 75 2.2 WNW 19 26 10 14 1003.3 1003.2 4.4
04/01:00am 13.2 11.0 9.5 78 1.9 WNW 11 15 6 8 1003.2 1003.1 4.4
04/12:30am 13.7 11.0 9.0 73 2.4 WNW 13 19 7 10 1003.1 1003.0 4.4
04/12:00am 13.6 12.4 10.4 81 1.7 WNW 7 9 4 5 1003.3 1003.2 4.4
 
Date/Time
CST
Temp
°C
App
Temp
°C
Dew
Point
°C
Rel
Hum
%
Delta-T
°C
Wind Press
QNH
hPa
Press
MSL
hPa
Rain since
9am
mm
Dir  Spd
km/h
Gust
km/h
Spd
kts
Gust
kts
03/11:30pm 13.7 12.7 11.1 84 1.4 W 7 9 4 5 1003.1 1003.0 4.4
03/11:00pm 13.8 12.5 11.2 84 1.4 WNW 9 11 5 6 1003.1 1003.0 4.4
03/10:30pm 14.3 11.8 11.1 81 1.7 W 15 19 8 10 1002.5 1002.4 4.4
03/10:00pm 14.5 12.2 11.9 84 1.4 W 15 20 8 11 1002.4 1002.3 4.4
03/09:30pm 14.6 12.8 12.2 85 1.3 W 13 17 7 9 1001.9 1001.8 4.4
03/09:00pm 14.0 13.1 12.5 91 0.8 NW 9 11 5 6 1002.6 1002.5 4.4
03/08:30pm 13.9 13.5 12.4 91 0.8 WNW 6 9 3 5 1002.8 1002.7 4.2
03/08:00pm 13.8 12.3 12.0 89 1.0 SW 11 15 6 8 1002.2 1002.1 3.8
03/07:30pm 13.7 11.7 11.5 86 1.2 WSW 13 17 7 9 1002.2 1002.1 2.2
03/07:00pm 14.1 8.6 10.7 80 1.8 WSW 30 43 16 23 1002.0 1001.9 0.0
03/06:30pm 16.4 10.7 11.2 71 2.8 W 32 44 17 24 1001.4 1001.3 0.0
03/06:07pm 17.3 12.0 12.5 73 2.7 W 32 56 17 30 1000.9 1000.8 0.0
03/06:00pm 17.4 12.6 12.8 74 2.6 W 30 37 16 20 1000.7 1000.6 0.0
03/05:35pm 18.3 10.1 11.8 66 3.6 W 46 69 25 37 1000.2 1000.1 0.0
03/05:30pm 19.5 12.2 10.3 55 5.0 W 39 69 21 37 1000.1 1000.0 0.0
03/05:29pm 19.8 12.8 10.0 53 5.3 W 37 69 20 37 1000.0 999.9 0.0
03/05:28pm 21.2 14.4 9.3 46 6.4 W 35 67 19 36 1000.0 999.9 0.0
03/05:00pm 24.3 17.1 4.9 28 9.7 WNW 32 46 17 25 998.8 998.7 0.0
03/04:30pm 24.8 18.3 6.4 30 9.6 WNW 30 44 16 24 998.5 998.4 0.0
03/04:00pm 25.9 18.8 5.3 26 10.5 WNW 32 43 17 23 998.5 998.4 0.0
03/03:30pm 25.2 18.8 3.3 24 10.8 WNW 26 35 14 19 998.8 998.7 0.0
03/03:00pm 25.7 19.4 3.6 24 11.0 NW 26 35 14 19 999.1 999.0 0.0
03/02:30pm 25.1 19.6 2.1 22 11.1 WNW 20 30 11 16 999.3 999.2 0.0
03/02:00pm 24.6 20.3 5.4 29 9.7 NW 17 24 9 13 1000.0 999.9 0.0
03/01:30pm 24.4 20.4 8.2 35 8.7 NW 19 32 10 17 1000.7 1000.6 0.0
03/01:00pm 24.6 19.5 6.0 30 9.5 WNW 22 35 12 19 1001.1 1001.0 0.0
03/12:30pm 25.1 19.6 4.1 25 10.5 WNW 22 32 12 17 1001.3 1001.2 0.0
03/12:00pm 24.9 20.1 7.3 32 9.3 NW 22 32 12 17 1001.7 1001.6 0.0
03/11:30am 24.6 19.8 7.4 33 9.1 NW 22 32 12 17 1001.9 1001.8 0.0
03/11:00am 24.2 18.9 8.6 37 8.4 NNW 26 37 14 20 1002.2 1002.1 0.0
03/10:30am 23.1 18.6 10.0 43 7.2 NNW 24 32 13 17 1002.6 1002.5 0.0
03/10:00am 22.0 18.5 10.8 49 6.2 N 20 22 11 12 1003.1 1003.0 0.0
03/09:30am 19.5 17.0 10.9 57 4.7 N 15 20 8 11 1003.3 1003.2 0.0
03/09:00am 16.8 15.8 13.3 80 2.0 N 11 15 6 8 1003.5 1003.4 0.0
03/08:30am 14.9 14.1 12.9 88 1.1 NNW 9 11 5 6 1003.5 1003.4 0.0
03/08:00am 13.8 12.4 12.3 91 0.8 NNW 11 11 6 6 1003.4 1003.3 0.0
03/07:30am 13.9 13.4 12.2 89 0.9 N 6 7 3 4 1003.4 1003.3 0.0
03/07:00am 14.4 14.4 12.4 88 1.1 S 4 11 2 6 1003.4 1003.3 0.0

Latest Capital City Observations: Canberra | Sydney | Melbourne | Brisbane | Adelaide | Perth | Hobart | Darwin

Other formats

Comma delimited format used in spreadsheet applications
http://www.bom.gov.au/fwo/IDS60901/IDS60901.95818.axf

JavaScript Object Notation format (JSON) in row-major order
http://www.bom.gov.au/fwo/IDS60901/IDS60901.95818.json

Data quality

Most of these data are generated automatically and are frequently updated. Quality checks on data are not normally performed. It is possible for incorrect values to appear. Refer to information at About Latest Weather Observations and please check the disclaimer before using these data.